Airfield :
LOGIN :

Register | Disclaimer

   EN    FR    IT 

 










Legend :    VFR   Marginal VFR   IFR   Intensive IFR   Very Intensive IFR
Visi :
Ceiling :
>= 8 km
>= 3000ft
5 to 8 km
1000 to 3000 ft
1500m to 5 km
500 to 1000 ft
800 to 1500m
200 to 500 ft
< 800m
< 200 ft
Symbols :   Thunderstorms  Fog  Heavy snow  Heavy precipitations  Wind > 20 kt
SIGMETs :     Misc.  Thunderstorms  Icing  Turbulence  Mountain Waves  Volcanic Ashes






- Airport Elevation : 1966 ft
- IATA code : SGE


EDGS - Siegerland

CURRENT METAR :
  • 041150Z VRB05KT 9999 FEW045 19/08 Q1021

EXPIRED METARs :
  • 041120Z 31007KT 280V010 9999 FEW040 18/08 Q1021
  • 041050Z 28006KT 180V340 9999 FEW039 17/07 Q1021
  • 041020Z 33007KT 290V010 9999 SCT039 17/09 Q1021
  • 040950Z VRB05KT 9999 FEW040 16/07 Q1021
  • 040920Z 27007KT 230V320 9999 FEW040 16/06 Q1021
  • 040850Z 27004KT 180V350 9999 FEW038 16/07 Q1021

TAF TAF EDGS
Valid from the 04 at 12:00 until the 04 at 21:00 UTC


041100Z 0412/0421 31007KT 9999 SCT045



MET'MAP, your aeronautical weather chart ! - Copyright ORBIFLY December 2007 - Disclaimer

ORBIFLY MET'MAP TEAM :

Programming & Development : Alexandra Zaïnal
Original concept : Baudouin d'Aumeries
Technical & hardware support : Manuel Goepfert
Assistance : Marc-Olivier Méhu




SOURCES & CREDITS :

   NOAA